createdAt,value
2023-05-19T00:01:57.381Z,37.02
2023-05-19T00:04:27.052Z,36.90
2023-05-19T00:06:55.519Z,38.46
2023-05-19T00:09:24.047Z,37.69
2023-05-19T00:11:52.565Z,37.29
2023-05-19T00:14:21.151Z,37.39
2023-05-19T00:16:49.899Z,38.13
2023-05-19T00:19:18.714Z,38.88
2023-05-19T00:21:47.108Z,37.81
2023-05-19T00:24:15.378Z,37.62
2023-05-19T00:26:43.708Z,37.85
2023-05-19T00:29:12.046Z,37.87
2023-05-19T00:31:40.571Z,37.85
2023-05-19T00:34:10.992Z,39.51
2023-05-19T00:36:39.335Z,37.99
2023-05-19T00:39:07.705Z,37.74
2023-05-19T00:41:36.935Z,38.08
2023-05-19T00:44:06.985Z,38.16
2023-05-19T00:46:35.588Z,38.06
2023-05-19T00:49:03.886Z,37.77
2023-05-19T00:51:32.432Z,38.41
2023-05-19T00:54:01.095Z,39.70
2023-05-19T00:56:29.520Z,39.35
2023-05-19T00:58:58.560Z,39.32
2023-05-19T01:01:27.875Z,38.92
2023-05-19T01:03:59.143Z,39.47
2023-05-19T01:06:27.763Z,39.01
2023-05-19T01:08:57.466Z,41.92
2023-05-19T01:11:25.934Z,40.95
2023-05-19T01:13:54.229Z,41.21
2023-05-19T01:16:34.605Z,40.24
2023-05-19T01:19:14.720Z,39.65
2023-05-19T01:22:42.888Z,40.36
2023-05-19T01:25:49.675Z,41.42
2023-05-19T01:28:55.642Z,42.68
2023-05-19T01:31:24.210Z,42.67
2023-05-19T01:33:54.355Z,40.64
2023-05-19T01:36:23.480Z,41.70
2023-05-19T01:38:58.578Z,40.21
2023-05-19T01:41:28.506Z,40.85
2023-05-19T01:43:57.902Z,40.35
2023-05-19T01:46:26.378Z,41.62
2023-05-19T01:48:54.948Z,39.95
2023-05-19T01:51:23.323Z,39.54
2023-05-19T01:53:51.695Z,38.67
2023-05-19T01:56:34.547Z,39.02
2023-05-19T01:59:46.862Z,40.22
2023-05-19T02:02:43.462Z,39.71
2023-05-19T02:05:29.439Z,40.65
2023-05-19T02:08:31.039Z,39.60
2023-05-19T02:11:07.958Z,40.28
2023-05-19T02:13:38.412Z,40.99
2023-05-19T02:16:07.386Z,40.33
2023-05-19T02:18:35.808Z,41.17
2023-05-19T02:21:04.330Z,42.08
2023-05-19T02:23:32.614Z,43.19
2023-05-19T02:26:01.327Z,44.11
2023-05-19T02:28:29.657Z,41.25
2023-05-19T02:31:00.006Z,40.43
2023-05-19T02:33:30.357Z,40.63
2023-05-19T02:35:58.739Z,40.17
2023-05-19T02:38:27.134Z,39.31
2023-05-19T02:40:55.454Z,40.58
2023-05-19T02:43:23.754Z,43.54
2023-05-19T02:45:52.089Z,41.61
2023-05-19T02:48:21.374Z,41.39
2023-05-19T02:50:52.268Z,40.93
2023-05-19T02:53:20.575Z,42.05
2023-05-19T02:55:49.026Z,47.41
2023-05-19T02:58:17.276Z,46.62
2023-05-19T03:00:45.929Z,45.16
2023-05-19T03:03:14.931Z,45.38
2023-05-19T03:05:43.752Z,42.90
2023-05-19T03:08:12.284Z,44.78
2023-05-19T03:10:40.633Z,43.60
2023-05-19T03:13:08.941Z,42.53
2023-05-19T03:15:37.250Z,51.47
2023-05-19T03:18:06.716Z,48.66
2023-05-19T03:20:35.232Z,48.42
2023-05-19T03:23:03.597Z,45.57
2023-05-19T03:25:31.862Z,45.38
2023-05-19T03:28:00.316Z,48.69
2023-05-19T03:30:28.642Z,45.15
2023-05-19T03:33:08.988Z,44.55
2023-05-19T03:35:37.451Z,44.00
2023-05-19T03:38:05.957Z,42.79
2023-05-19T03:40:36.188Z,43.25
2023-05-19T03:43:09.903Z,42.40
2023-05-19T03:45:45.847Z,42.23
2023-05-19T03:48:49.126Z,41.42
2023-05-19T03:51:34.846Z,41.61
2023-05-19T03:54:10.399Z,41.87
2023-05-19T03:56:40.997Z,41.55
2023-05-19T03:59:12.898Z,41.36
2023-05-19T04:01:41.301Z,41.46
2023-05-19T04:04:09.670Z,41.92
2023-05-19T04:06:38.070Z,41.10
2023-05-19T04:09:14.581Z,40.47
2023-05-19T04:11:43.368Z,40.87
2023-05-19T04:14:11.662Z,41.85
2023-05-19T04:16:39.979Z,42.85
2023-05-19T04:19:08.479Z,41.45
2023-05-19T04:21:36.900Z,48.95
2023-05-19T04:24:06.476Z,44.50
2023-05-19T04:26:35.912Z,48.17
2023-05-19T04:29:04.882Z,51.70
2023-05-19T04:31:35.273Z,54.01
2023-05-19T04:34:07.815Z,49.86
2023-05-19T04:36:38.409Z,54.93
2023-05-19T04:39:09.521Z,54.26
2023-05-19T04:41:40.483Z,55.03
2023-05-19T04:44:09.488Z,54.75
2023-05-19T04:46:38.944Z,52.06
2023-05-19T04:49:07.804Z,52.25
2023-05-19T04:51:36.204Z,48.62
2023-05-19T04:54:04.583Z,53.39
2023-05-19T04:56:33.242Z,56.52
2023-05-19T04:59:02.937Z,52.72
2023-05-19T05:01:32.910Z,61.14
2023-05-19T05:04:02.698Z,57.86
2023-05-19T05:06:31.968Z,56.98
2023-05-19T05:09:00.690Z,51.04
2023-05-19T05:11:29.893Z,48.55
2023-05-19T05:13:58.600Z,46.86
2023-05-19T05:16:29.718Z,48.59
2023-05-19T05:19:03.191Z,48.50
2023-05-19T05:21:32.929Z,46.75
2023-05-19T05:24:01.698Z,46.66
2023-05-19T05:26:58.982Z,45.46
2023-05-19T05:29:27.806Z,46.12
2023-05-19T05:32:22.233Z,46.64
2023-05-19T05:34:50.984Z,46.17
2023-05-19T05:37:19.315Z,46.84
2023-05-19T05:39:47.686Z,47.02
2023-05-19T05:42:16.230Z,46.91
2023-05-19T05:44:45.115Z,47.14
2023-05-19T05:47:14.155Z,46.42
2023-05-19T05:49:43.897Z,46.95
2023-05-19T05:52:13.216Z,47.39
2023-05-19T05:54:47.089Z,47.90
2023-05-19T05:57:18.482Z,48.36
2023-05-19T05:59:47.295Z,48.03
2023-05-19T06:02:22.468Z,49.79
2023-05-19T06:04:50.881Z,49.23
2023-05-19T06:07:19.131Z,48.34
2023-05-19T06:09:47.582Z,47.95
2023-05-19T06:12:17.110Z,48.06
2023-05-19T06:14:49.585Z,47.84
2023-05-19T06:17:26.992Z,49.60
2023-05-19T06:19:55.633Z,48.22
2023-05-19T06:22:24.396Z,48.63
2023-05-19T06:24:52.998Z,47.90
2023-05-19T06:27:21.312Z,49.39
2023-05-19T06:29:49.598Z,48.97
2023-05-19T06:32:18.042Z,47.98
2023-05-19T06:34:53.930Z,48.69
2023-05-19T06:37:25.407Z,49.87
2023-05-19T06:39:54.480Z,49.27
2023-05-19T06:42:26.477Z,49.18
2023-05-19T06:45:09.907Z,48.13
2023-05-19T06:47:42.409Z,48.41
2023-05-19T06:50:10.766Z,47.93
2023-05-19T06:52:42.671Z,47.52
2023-05-19T06:55:11.098Z,48.27
2023-05-19T06:57:40.444Z,47.77
2023-05-19T07:00:14.616Z,49.13
2023-05-19T07:02:47.998Z,47.68
2023-05-19T07:05:16.719Z,47.59
2023-05-19T07:07:50.079Z,48.54
2023-05-19T07:10:22.517Z,48.61
2023-05-19T07:12:51.805Z,49.31
2023-05-19T07:15:23.280Z,48.42
2023-05-19T07:17:51.717Z,48.96
2023-05-19T07:20:20.090Z,48.32
2023-05-19T07:22:48.516Z,47.93
2023-05-19T07:25:17.210Z,48.04
2023-05-19T07:27:48.577Z,47.96
2023-05-19T07:30:16.869Z,48.14
2023-05-19T07:32:45.214Z,47.07
2023-05-19T07:35:16.562Z,48.27
2023-05-19T07:37:44.841Z,48.10
2023-05-19T07:40:13.342Z,48.46
2023-05-19T07:42:41.986Z,47.54
2023-05-19T07:45:12.063Z,47.23
2023-05-19T07:47:40.435Z,48.04
2023-05-19T07:50:09.077Z,48.26
2023-05-19T07:52:37.385Z,47.96
2023-05-19T07:55:06.163Z,47.95
2023-05-19T07:57:34.501Z,47.93
2023-05-19T08:00:07.551Z,48.09
2023-05-19T08:02:40.789Z,47.61
2023-05-19T08:05:09.871Z,47.52
2023-05-19T08:07:38.373Z,47.90
2023-05-19T08:10:07.344Z,46.86
2023-05-19T08:12:35.823Z,47.08
2023-05-19T08:15:04.735Z,46.99
2023-05-19T08:17:33.144Z,46.78
2023-05-19T08:20:01.430Z,46.69
2023-05-19T08:22:29.878Z,46.18
2023-05-19T08:24:58.234Z,46.56
2023-05-19T08:27:26.530Z,46.14
2023-05-19T08:29:55.456Z,46.62
2023-05-19T08:32:24.186Z,47.42
2023-05-19T08:34:52.623Z,46.51
2023-05-19T08:37:21.100Z,45.84
2023-05-19T08:39:49.489Z,45.88
2023-05-19T08:42:17.776Z,45.49
2023-05-19T08:44:46.137Z,45.54
2023-05-19T08:47:15.189Z,45.00
2023-05-19T08:49:47.494Z,45.17
2023-05-19T08:52:53.128Z,45.16
2023-05-19T08:55:58.998Z,44.54
2023-05-19T08:58:28.814Z,44.31
2023-05-19T09:00:57.449Z,44.47
2023-05-19T09:03:26.523Z,44.47
2023-05-19T09:05:55.031Z,44.24
2023-05-19T09:08:23.360Z,43.92
2023-05-19T09:10:51.670Z,42.69
2023-05-19T09:13:19.940Z,43.42
2023-05-19T09:15:49.329Z,42.96
2023-05-19T09:18:17.866Z,43.07
2023-05-19T09:20:47.244Z,42.20
2023-05-19T09:23:17.727Z,40.90
2023-05-19T09:25:49.977Z,40.22
2023-05-19T09:28:30.959Z,38.44
2023-05-19T09:31:08.368Z,36.84
2023-05-19T09:33:39.207Z,35.53
2023-05-19T09:36:13.845Z,34.33
2023-05-19T09:38:42.477Z,33.91
2023-05-19T09:41:11.232Z,32.54
2023-05-19T09:43:39.501Z,32.51
2023-05-19T09:46:12.127Z,30.96
2023-05-19T09:48:42.753Z,31.79
2023-05-19T09:51:11.693Z,31.45
2023-05-19T09:53:40.048Z,29.98
2023-05-19T09:56:09.960Z,29.14
2023-05-19T09:58:39.032Z,29.19
2023-05-19T10:01:07.591Z,28.18
2023-05-19T10:03:36.641Z,28.22
2023-05-19T10:06:05.558Z,27.48
2023-05-19T10:08:35.862Z,28.12
2023-05-19T10:11:04.337Z,26.79
2023-05-19T10:13:32.893Z,26.29
2023-05-19T10:16:01.781Z,26.51
2023-05-19T10:18:30.293Z,26.70
2023-05-19T10:21:00.168Z,27.06
2023-05-19T10:23:28.424Z,28.55
2023-05-19T10:25:59.259Z,27.79
2023-05-19T10:28:35.334Z,26.09
2023-05-19T10:34:21.894Z,25.55
2023-05-19T10:37:12.094Z,24.80
2023-05-19T10:39:44.394Z,25.87
2023-05-19T10:42:38.432Z,25.87
2023-05-19T10:45:21.284Z,25.38
2023-05-19T10:47:51.774Z,24.30
2023-05-19T10:50:21.114Z,23.83
2023-05-19T10:52:56.887Z,25.30
2023-05-19T10:55:53.228Z,25.57
2023-05-19T10:58:46.158Z,25.04
2023-05-19T11:01:17.004Z,24.02
2023-05-19T11:03:47.383Z,24.89
2023-05-19T11:06:29.635Z,25.94
2023-05-19T11:09:00.972Z,25.24
2023-05-19T11:11:51.992Z,25.26
2023-05-19T11:14:26.838Z,23.12
2023-05-19T11:16:59.621Z,22.65
2023-05-19T11:19:32.562Z,23.61
2023-05-19T11:22:13.945Z,22.80
2023-05-19T11:24:53.388Z,21.37
2023-05-19T11:27:23.119Z,22.52
2023-05-19T11:29:52.103Z,22.75
2023-05-19T11:32:26.996Z,21.70
2023-05-19T11:34:57.586Z,20.76
2023-05-19T11:37:26.717Z,20.04
2023-05-19T11:39:56.276Z,20.21
2023-05-19T11:42:24.634Z,19.18
2023-05-19T11:44:56.160Z,19.05
2023-05-19T11:47:24.652Z,18.41
2023-05-19T11:49:54.844Z,18.96
2023-05-19T11:52:24.009Z,19.60
2023-05-19T11:54:52.512Z,20.96
2023-05-19T11:57:21.000Z,22.31
2023-05-19T11:59:52.246Z,22.09
2023-05-19T12:02:24.784Z,22.31
2023-05-19T12:04:54.086Z,23.13
2023-05-19T12:07:26.049Z,22.26
2023-05-19T12:09:56.039Z,20.72
2023-05-19T12:12:24.333Z,19.87
2023-05-19T12:14:53.348Z,18.95
2023-05-19T12:17:24.084Z,19.21
2023-05-19T12:19:52.689Z,19.48
2023-05-19T12:22:21.095Z,20.24
2023-05-19T12:24:50.348Z,20.09
2023-05-19T12:27:26.219Z,19.68
2023-05-19T12:29:57.214Z,19.18
2023-05-19T12:32:27.725Z,18.66
2023-05-19T12:35:00.305Z,17.89
2023-05-19T12:37:30.085Z,17.45
2023-05-19T12:39:59.306Z,17.31
2023-05-19T12:42:31.426Z,18.41
2023-05-19T12:45:03.238Z,19.63
2023-05-19T12:47:34.807Z,18.46
2023-05-19T12:50:10.263Z,17.34
2023-05-19T12:52:52.120Z,16.04
2023-05-19T12:55:22.149Z,16.56
2023-05-19T12:57:57.302Z,15.65
2023-05-19T13:00:31.155Z,15.43
2023-05-19T13:03:05.928Z,16.71
2023-05-19T13:05:39.203Z,16.80
2023-05-19T13:08:12.673Z,17.64
2023-05-19T13:10:44.565Z,18.48
2023-05-19T13:13:13.630Z,17.19
2023-05-19T13:15:44.066Z,17.15
2023-05-19T13:18:13.700Z,17.11
2023-05-19T13:20:44.382Z,17.81
2023-05-19T13:23:14.212Z,17.84
2023-05-19T13:25:43.420Z,19.49
2023-05-19T13:28:12.012Z,19.86
2023-05-19T13:30:41.960Z,17.84
2023-05-19T13:33:09.990Z,16.25
2023-05-19T13:35:38.850Z,16.41
2023-05-19T13:38:09.862Z,15.06
2023-05-19T13:40:39.790Z,14.68
2023-05-19T13:43:09.001Z,15.31
2023-05-19T13:45:37.717Z,16.77
2023-05-19T13:48:07.376Z,16.63
2023-05-19T13:50:36.115Z,16.40
2023-05-19T13:53:04.396Z,14.70
2023-05-19T13:55:33.191Z,15.41
2023-05-19T13:58:01.472Z,16.00
2023-05-19T14:00:31.759Z,15.15
2023-05-19T14:03:00.559Z,14.65
2023-05-19T14:05:29.322Z,14.74
2023-05-19T14:07:58.149Z,14.24
2023-05-19T14:10:26.664Z,15.07
2023-05-19T14:13:25.850Z,15.25
2023-05-19T14:15:44.215Z,15.75
2023-05-19T14:18:12.637Z,17.31
2023-05-19T14:20:41.467Z,16.87
2023-05-19T14:23:09.945Z,17.48
2023-05-19T14:25:38.285Z,17.26
2023-05-19T14:28:06.516Z,16.54
2023-05-19T14:30:35.006Z,15.48
2023-05-19T14:33:03.765Z,14.98
2023-05-19T14:35:32.337Z,15.51
2023-05-19T14:38:00.832Z,14.35
2023-05-19T14:40:29.264Z,14.78
2023-05-19T14:42:57.916Z,14.06
2023-05-19T14:45:26.241Z,14.71
2023-05-19T14:47:54.769Z,14.01
2023-05-19T14:50:23.161Z,14.79
2023-05-19T14:52:51.405Z,16.13
2023-05-19T14:55:19.758Z,15.21
2023-05-19T14:57:48.038Z,15.25
2023-05-19T15:00:17.684Z,15.52
2023-05-19T15:02:46.272Z,15.56
2023-05-19T15:05:14.659Z,16.23
2023-05-19T15:07:43.016Z,16.07
2023-05-19T15:10:11.615Z,16.92
2023-05-19T15:12:39.938Z,16.01
2023-05-19T15:15:09.156Z,17.05
2023-05-19T15:17:37.491Z,18.39
2023-05-19T15:20:06.737Z,18.64
2023-05-19T15:22:35.172Z,18.48
2023-05-19T15:25:03.640Z,18.36
2023-05-19T15:27:31.931Z,17.18
2023-05-19T15:30:00.310Z,17.16
2023-05-19T15:32:28.635Z,16.50
2023-05-19T15:34:57.030Z,16.21
2023-05-19T15:37:25.541Z,15.88
2023-05-19T15:39:54.863Z,16.62
2023-05-19T15:42:23.219Z,16.75
2023-05-19T15:44:51.526Z,16.44
2023-05-19T15:47:19.862Z,16.00
2023-05-19T15:49:48.186Z,15.90
2023-05-19T15:52:16.575Z,15.77
2023-05-19T15:54:45.002Z,15.74
2023-05-19T15:57:13.557Z,15.63
2023-05-19T15:59:41.996Z,16.39
2023-05-19T16:02:10.801Z,16.05
2023-05-19T16:04:39.209Z,16.03
2023-05-19T16:07:07.532Z,16.23
2023-05-19T16:09:35.864Z,16.24
2023-05-19T16:12:04.313Z,16.45
2023-05-19T16:14:36.338Z,17.26
2023-05-19T16:17:11.245Z,17.13
2023-05-19T16:19:39.743Z,16.91
2023-05-19T16:22:08.051Z,17.62
2023-05-19T16:24:36.406Z,18.23
2023-05-19T16:27:05.208Z,18.17
2023-05-19T16:29:33.541Z,18.62
2023-05-19T16:32:01.923Z,19.10
2023-05-19T16:34:30.730Z,19.38
2023-05-19T16:36:59.228Z,19.61
2023-05-19T16:39:27.560Z,18.64
2023-05-19T16:41:55.865Z,18.44
2023-05-19T16:44:24.583Z,18.15
2023-05-19T16:46:53.016Z,18.46
2023-05-19T16:49:21.374Z,18.18
2023-05-19T16:51:50.024Z,18.27
2023-05-19T16:54:18.512Z,18.33
2023-05-19T16:56:46.793Z,19.14
2023-05-19T16:59:15.074Z,19.56
2023-05-19T17:01:43.840Z,18.83
2023-05-19T17:04:12.186Z,18.21
2023-05-19T17:06:40.579Z,18.85
2023-05-19T17:09:08.896Z,18.94
2023-05-19T17:11:37.221Z,18.22
2023-05-19T17:14:09.250Z,18.80
2023-05-19T17:16:38.784Z,18.44
2023-05-19T17:19:07.087Z,18.68
2023-05-19T17:21:35.647Z,18.49
2023-05-19T17:24:03.912Z,18.86
2023-05-19T17:26:32.413Z,18.89
2023-05-19T17:29:00.753Z,19.27
2023-05-19T17:31:29.070Z,19.02
2023-05-19T17:33:57.339Z,19.62
2023-05-19T17:36:26.070Z,19.70
2023-05-19T17:38:54.501Z,19.50
2023-05-19T17:41:22.792Z,19.72
2023-05-19T17:43:51.266Z,20.14
2023-05-19T17:46:19.629Z,20.38
2023-05-19T17:48:48.002Z,20.00
2023-05-19T17:51:16.320Z,20.00
2023-05-19T17:53:45.422Z,20.16
2023-05-19T17:56:13.946Z,20.35
2023-05-19T17:58:42.628Z,20.69
2023-05-19T18:01:11.236Z,20.53
2023-05-19T18:03:39.933Z,20.55
2023-05-19T18:06:08.472Z,20.71
2023-05-19T18:08:37.704Z,21.13
2023-05-19T18:11:06.477Z,21.19
2023-05-19T18:13:35.304Z,21.30
2023-05-19T18:16:03.657Z,21.42
2023-05-19T18:18:34.592Z,21.75
2023-05-19T18:21:05.888Z,21.90
2023-05-19T18:23:34.260Z,21.90
2023-05-19T18:26:02.533Z,22.23
2023-05-19T18:28:30.871Z,22.56
2023-05-19T18:31:00.812Z,22.63
2023-05-19T18:33:31.065Z,22.30
2023-05-19T18:35:59.982Z,22.52
2023-05-19T18:38:28.284Z,22.95
2023-05-19T18:40:56.807Z,22.82
2023-05-19T18:43:25.237Z,22.72
2023-05-19T18:45:53.644Z,23.11
2023-05-19T18:48:22.533Z,23.50
2023-05-19T18:50:51.407Z,23.57
2023-05-19T18:53:21.160Z,23.82
2023-05-19T18:55:49.545Z,23.91
2023-05-19T18:58:18.875Z,23.81
2023-05-19T19:00:47.990Z,23.96
2023-05-19T19:03:16.458Z,24.15
2023-05-19T19:05:46.085Z,24.47
2023-05-19T19:08:14.365Z,25.24
2023-05-19T19:10:43.265Z,24.86
2023-05-19T19:13:11.613Z,24.87
2023-05-19T19:15:39.914Z,25.01
2023-05-19T19:18:08.479Z,24.92
2023-05-19T19:20:36.868Z,25.43
2023-05-19T19:23:06.545Z,25.42
2023-05-19T19:25:35.203Z,26.09
2023-05-19T19:28:03.683Z,25.94
2023-05-19T19:30:32.369Z,25.89
2023-05-19T19:33:01.035Z,25.80
2023-05-19T19:35:29.475Z,26.06
2023-05-19T19:37:58.688Z,26.34
2023-05-19T19:40:26.975Z,26.41
2023-05-19T19:42:55.374Z,26.50
2023-05-19T19:45:23.751Z,26.60
2023-05-19T19:47:52.445Z,26.63
2023-05-19T19:50:20.778Z,26.71
2023-05-19T19:52:49.088Z,26.86
2023-05-19T19:55:17.507Z,27.71
2023-05-19T19:57:49.152Z,27.19
2023-05-19T20:00:18.498Z,27.14
2023-05-19T20:05:19.987Z,27.47
2023-05-19T20:07:48.246Z,27.50
2023-05-19T20:10:16.770Z,27.31
2023-05-19T20:12:47.095Z,27.50
2023-05-19T20:15:15.960Z,27.54
2023-05-19T20:17:44.332Z,28.57
2023-05-19T20:20:13.153Z,29.27
2023-05-19T20:22:41.637Z,29.30
2023-05-19T20:25:10.079Z,29.27
2023-05-19T20:27:38.355Z,29.53
2023-05-19T20:30:07.495Z,30.32
2023-05-19T20:32:36.460Z,31.20
2023-05-19T20:35:05.128Z,31.12
2023-05-19T20:37:33.487Z,31.02
2023-05-19T20:40:01.815Z,31.54
2023-05-19T20:42:30.099Z,31.57
2023-05-19T20:44:58.990Z,31.66
2023-05-19T20:47:29.750Z,31.30
2023-05-19T20:49:58.819Z,32.22
2023-05-19T20:52:27.389Z,32.55
2023-05-19T20:54:56.890Z,31.40
2023-05-19T20:57:27.634Z,31.27
2023-05-19T20:59:57.116Z,32.59
2023-05-19T21:02:25.468Z,32.67
2023-05-19T21:04:53.991Z,32.63
2023-05-19T21:07:22.603Z,33.61
2023-05-19T21:09:51.443Z,33.82
2023-05-19T21:12:23.804Z,35.39
2023-05-19T21:14:52.445Z,35.38
2023-05-19T21:17:21.282Z,36.01
2023-05-19T21:19:50.740Z,35.63
2023-05-19T21:22:19.158Z,36.23
2023-05-19T21:24:47.496Z,36.71
2023-05-19T21:27:15.789Z,36.11
2023-05-19T21:29:44.058Z,35.80
2023-05-19T21:32:12.397Z,36.65
2023-05-19T21:34:40.746Z,36.16
2023-05-19T21:37:09.082Z,35.99
2023-05-19T21:39:37.446Z,36.24
2023-05-19T21:42:06.405Z,36.73
2023-05-19T21:44:34.733Z,37.98
2023-05-19T21:47:03.089Z,36.82
2023-05-19T21:49:31.670Z,36.98
2023-05-19T21:52:00.016Z,37.52
2023-05-19T21:54:28.356Z,38.04
2023-05-19T21:56:56.639Z,37.56
2023-05-19T21:59:25.017Z,37.71
2023-05-19T22:01:53.508Z,37.36
2023-05-19T22:04:22.518Z,38.77
2023-05-19T22:06:51.056Z,38.35
2023-05-19T22:09:19.371Z,38.39
2023-05-19T22:11:47.665Z,38.06
2023-05-19T22:14:16.185Z,38.07
2023-05-19T22:16:44.703Z,39.05
2023-05-19T22:19:13.425Z,39.04
2023-05-19T22:21:42.778Z,38.83
2023-05-19T22:24:11.165Z,37.35
2023-05-19T22:26:42.628Z,38.19
2023-05-19T22:29:15.099Z,37.60
2023-05-19T22:31:43.444Z,38.34
2023-05-19T22:34:15.293Z,37.97
2023-05-19T22:36:45.912Z,37.68
2023-05-19T22:39:14.461Z,38.18
2023-05-19T22:41:42.860Z,37.87
2023-05-19T22:44:15.386Z,39.82
2023-05-19T22:46:44.669Z,39.03
2023-05-19T22:49:13.053Z,39.15
2023-05-19T22:51:41.330Z,38.60
2023-05-19T22:54:10.727Z,38.68
2023-05-19T22:56:38.978Z,37.56
2023-05-19T22:59:07.295Z,38.25
2023-05-19T23:01:35.743Z,38.77
2023-05-19T23:04:04.389Z,38.20
2023-05-19T23:06:32.702Z,38.87
2023-05-19T23:09:04.716Z,39.20
2023-05-19T23:11:33.170Z,38.26
2023-05-19T23:14:01.961Z,38.28
2023-05-19T23:16:30.430Z,38.17
2023-05-19T23:18:58.839Z,39.25
2023-05-19T23:21:27.157Z,39.29
2023-05-19T23:23:55.882Z,38.45
2023-05-19T23:26:24.262Z,38.28
2023-05-19T23:28:52.601Z,38.49
2023-05-19T23:31:21.041Z,38.34
2023-05-19T23:33:49.476Z,37.60
2023-05-19T23:36:17.802Z,39.59
2023-05-19T23:38:46.072Z,41.84
2023-05-19T23:41:14.761Z,39.87
2023-05-19T23:43:43.097Z,39.75
2023-05-19T23:46:11.509Z,39.77
2023-05-19T23:48:39.894Z,40.14
2023-05-19T23:51:08.188Z,39.86
2023-05-19T23:53:36.650Z,41.13
2023-05-19T23:56:05.302Z,39.34
2023-05-19T23:58:33.586Z,39.91
